Bradley Cross, United Kingdom
Current Conditions -  °F | °C
As of 11:50 AM on Sunday 23 Nov 2014 (Local Time) from EGGD Reporting Station
Scattered Clouds Scattered Clouds  
Wind Chill: 44°   Ceiling: Unl
Heat Index: 46°   Visibility: 6mi
Dew Point: 45°   Wind: 5mph
Humidity: 93%   Direction: 290°WNW
Pressure: 30.06"   Gusts: NA
Location:  51.27°N, 2.76°W
Report Text: EGGD 231150Z 29004KT 9999 FEW005 SCT038 08/07 Q1018
Loading
Personal Weather Stations






























Interactive Weather Map New forecast layout! Learn more

10-Day Weather Forecast

Advertisements
Track Severe Weather on mobile